Time;durP1;ratioP1;P1;durP2;ratioP2;P2;SDS_P1;SDS_P2;PMS_P1;PMS_P2;Temp;Humidity;BMP_temperature;BMP_pressure;BME280_temperature;BME280_humidity;BME280_pressure;Samples;Min_cycle;Max_cycle;Signal;HPM_P1;HPM_P2
2022/03/22 00:02:17;;;;;;;9.32;4.22;;;;;;;8.73;50.38;102630.84;4971625;28;20085;-59
2022/03/22 00:04:43;;;;;;;10.02;4.20;;;;;;;8.67;50.66;102630.09;4944461;28;20494;-57
2022/03/22 00:07:08;;;;;;;8.23;4.00;;;;;;;8.63;50.46;102639.81;4959186;28;20078;-60
2022/03/22 00:09:36;;;;;;;14.70;3.97;;;;;;;8.64;51.16;102628.00;4949775;28;20398;-58
2022/03/22 00:12:02;;;;;;;10.40;4.43;;;;;;;8.60;51.33;102627.00;4967973;28;20047;-59
2022/03/22 00:14:27;;;;;;;10.77;3.67;;;;;;;8.52;51.13;102629.53;4955419;28;20430;-58
2022/03/22 00:16:53;;;;;;;12.82;3.58;;;;;;;8.52;51.13;102627.66;4952941;28;20039;-60
2022/03/22 00:19:19;;;;;;;7.78;3.72;;;;;;;8.49;51.36;102630.13;4958201;28;20078;-60
2022/03/22 00:21:46;;;;;;;11.43;4.38;;;;;;;8.48;51.11;102632.00;4964769;28;20138;-60
2022/03/22 00:24:12;;;;;;;10.95;3.47;;;;;;;8.49;51.41;102632.81;4957706;28;20121;-56
2022/03/22 00:26:38;;;;;;;8.75;4.10;;;;;;;8.49;51.52;102633.63;4945971;28;20121;-60
2022/03/22 00:29:03;;;;;;;13.43;4.55;;;;;;;8.43;51.93;102632.09;4954261;29;20046;-59
2022/03/22 00:31:32;;;;;;;7.93;3.60;;;;;;;8.38;51.88;102636.75;4957181;28;20277;-60
2022/03/22 00:33:57;;;;;;;8.05;3.58;;;;;;;8.38;52.22;102632.13;4965825;28;20039;-59
2022/03/22 00:36:24;;;;;;;11.43;4.15;;;;;;;8.35;51.90;102635.41;4938171;28;20023;-60
2022/03/22 00:38:50;;;;;;;9.18;4.15;;;;;;;8.37;51.54;102624.38;4967951;28;20544;-58
2022/03/22 00:41:17;;;;;;;8.07;3.60;;;;;;;8.39;51.70;102625.69;4954586;28;20085;-60
2022/03/22 00:43:46;;;;;;;11.20;3.47;;;;;;;8.37;51.48;102627.88;4952941;28;20105;-59
2022/03/22 00:46:12;;;;;;;8.38;3.38;;;;;;;8.33;51.52;102632.22;4960615;28;20050;-58
2022/03/22 00:48:38;;;;;;;9.23;3.72;;;;;;;8.25;51.22;102626.69;4967653;28;20089;-60
2022/03/22 00:51:04;;;;;;;10.85;3.85;;;;;;;8.25;51.46;102619.47;4969824;28;20065;-58
2022/03/22 00:53:30;;;;;;;9.65;3.95;;;;;;;8.19;51.70;102626.75;4972697;28;20031;-61
2022/03/22 00:55:56;;;;;;;6.60;3.58;;;;;;;8.14;51.28;102618.78;4952428;28;20397;-59
2022/03/22 00:58:21;;;;;;;8.23;3.80;;;;;;;8.16;51.36;102623.84;4971256;28;20073;-60
2022/03/22 01:00:48;;;;;;;7.72;3.92;;;;;;;8.08;51.75;102625.31;4964375;28;20540;-59
2022/03/22 01:03:14;;;;;;;7.88;3.85;;;;;;;8.07;51.81;102623.69;4963091;28;20031;-59
2022/03/22 01:05:39;;;;;;;5.85;3.60;;;;;;;8.06;52.32;102622.09;4952736;29;20109;-58
2022/03/22 01:08:08;;;;;;;8.98;4.10;;;;;;;8.02;52.86;102622.97;4949232;28;20094;-60
2022/03/22 01:10:37;;;;;;;9.45;4.13;;;;;;;8.02;53.02;102618.41;4968116;28;20118;-58
2022/03/22 01:13:04;;;;;;;8.63;3.58;;;;;;;8.01;52.61;102622.16;4963464;28;20034;-60
2022/03/22 01:15:35;;;;;;;8.10;3.97;;;;;;;8.02;52.67;102621.09;4967248;28;20465;-60
2022/03/22 01:18:06;;;;;;;7.13;3.25;;;;;;;8.03;52.61;102619.97;4971064;28;20038;-60
2022/03/22 01:20:36;;;;;;;;;;;;;;;8.04;52.20;102624.28;4957837;28;20035;-57
2022/03/22 01:23:03;;;;;;;7.30;3.40;;;;;;;7.99;52.71;102623.56;4959627;28;19965;-60
2022/03/22 01:25:30;;;;;;;7.43;3.03;;;;;;;7.95;52.38;102617.16;4952637;29;20541;-60
2022/03/22 01:27:56;;;;;;;13.48;3.22;;;;;;;7.93;53.07;102622.03;4951930;28;20498;-60
2022/03/22 01:30:24;;;;;;;8.82;3.63;;;;;;;7.93;53.20;102619.34;4958590;28;20034;-61
2022/03/22 01:32:50;;;;;;;9.60;3.65;;;;;;;7.92;52.66;102609.69;4966365;28;20034;-61
2022/03/22 01:35:17;;;;;;;7.82;3.55;;;;;;;7.83;53.28;102614.09;4970807;28;20162;-61
2022/03/22 01:37:44;;;;;;;7.07;3.45;;;;;;;7.82;52.75;102621.34;4952571;28;20027;-61
2022/03/22 01:40:11;;;;;;;8.45;3.33;;;;;;;7.79;52.89;102621.13;4956258;28;20027;-60
2022/03/22 01:42:38;;;;;;;12.27;4.43;;;;;;;7.75;52.73;102615.53;4966476;28;20039;-60
2022/03/22 01:45:04;;;;;;;9.15;3.92;;;;;;;7.74;53.53;102607.78;4951250;28;20046;-60
2022/03/22 01:47:30;;;;;;;8.32;3.55;;;;;;;7.72;53.21;102609.94;4954352;28;20043;-61
2022/03/22 01:49:56;;;;;;;8.60;3.15;;;;;;;7.71;52.75;102603.78;4951873;28;20035;-60
2022/03/22 01:52:24;;;;;;;7.05;3.33;;;;;;;7.70;53.05;102609.44;4969412;28;20042;-61
2022/03/22 01:54:54;;;;;;;10.73;3.97;;;;;;;7.72;52.76;102604.59;4962194;28;20525;-60
2022/03/22 01:57:20;;;;;;;8.75;3.42;;;;;;;7.71;52.42;102592.25;4970228;28;20138;-59
2022/03/22 01:59:46;;;;;;;7.10;3.80;;;;;;;7.70;53.11;102602.19;4962679;28;20264;-59
2022/03/22 02:07:46;;;;;;;7.00;3.40;;;;;;;7.68;52.33;102582.91;4968303;28;20405;-61
2022/03/22 02:10:12;;;;;;;8.50;4.07;;;;;;;7.69;52.95;102589.88;4961681;28;20035;-60
2022/03/22 02:12:38;;;;;;;7.63;4.18;;;;;;;7.68;52.24;102582.13;4962855;28;20035;-61
2022/03/22 02:15:05;;;;;;;7.82;3.97;;;;;;;7.69;52.26;102581.81;4937860;28;20037;-61
2022/03/22 02:17:31;;;;;;;9.45;3.42;;;;;;;7.65;52.24;102583.47;4967727;28;20034;-61
2022/03/22 02:19:57;;;;;;;6.25;3.03;;;;;;;7.66;52.38;102584.28;4962124;28;20434;-60
2022/03/22 02:22:31;;;;;;;8.18;3.35;;;;;;;7.65;52.48;102580.00;4950444;28;20039;-61
2022/03/22 02:24:57;;;;;;;8.40;3.53;;;;;;;7.63;52.22;102579.47;4962863;28;20324;-57
2022/03/22 02:27:25;;;;;;;8.30;3.45;;;;;;;7.55;52.78;102582.81;4978135;23;20076;-61
2022/03/22 02:29:50;;;;;;;8.77;3.53;;;;;;;7.45;52.86;102578.38;5002432;28;20112;-61
2022/03/22 02:32:23;;;;;;;7.25;3.05;;;;;;;7.44;53.31;102575.97;5013249;28;20201;-62
2022/03/22 02:34:49;;;;;;;8.13;3.58;;;;;;;7.44;53.18;102573.28;5026221;28;20238;-62
2022/03/22 02:37:14;;;;;;;11.02;4.07;;;;;;;7.44;52.54;102576.75;5025446;28;20413;-60
2022/03/22 02:39:40;;;;;;;7.70;4.00;;;;;;;7.45;53.32;102572.22;5014459;28;20034;-61
2022/03/22 02:42:05;;;;;;;7.18;3.50;;;;;;;7.45;53.35;102566.84;5006450;28;20042;-62
2022/03/22 02:44:31;;;;;;;10.27;3.90;;;;;;;7.43;53.55;102566.34;5015115;28;20037;-60
2022/03/22 02:46:57;;;;;;;6.70;3.25;;;;;;;7.40;53.23;102570.38;5016047;28;20057;-57
2022/03/22 02:49:23;;;;;;;8.73;3.25;;;;;;;7.37;53.84;102567.47;5022427;28;20080;-60
2022/03/22 02:51:48;;;;;;;9.25;3.85;;;;;;;7.34;53.54;102560.03;5018456;28;20041;-61
2022/03/22 02:54:14;;;;;;;8.50;3.25;;;;;;;7.34;53.17;102570.75;5009293;28;20021;-62
2022/03/22 02:56:39;;;;;;;13.80;3.83;;;;;;;7.29;53.83;102569.72;5008330;28;20037;-57
2022/03/22 02:59:05;;;;;;;9.60;3.60;;;;;;;7.27;54.28;102571.88;4974533;28;20045;-59
2022/03/22 03:01:32;;;;;;;8.85;3.15;;;;;;;7.23;54.35;102568.16;5016346;28;20092;-61
2022/03/22 03:04:00;;;;;;;8.90;3.58;;;;;;;7.21;53.90;102574.88;5013640;28;20114;-61
2022/03/22 03:06:28;;;;;;;6.97;2.92;;;;;;;7.18;53.99;102567.44;5008069;28;20041;-62
2022/03/22 03:08:56;;;;;;;6.45;3.25;;;;;;;7.17;53.99;102574.66;5015078;28;20042;-59
2022/03/22 03:11:21;;;;;;;5.35;3.25;;;;;;;7.17;54.30;102569.28;5016905;28;20068;-60
2022/03/22 03:16:30;;;;;;;8.80;3.65;;;;;;;7.12;54.50;102566.66;5007825;28;20464;-63
2022/03/22 03:18:56;;;;;;;7.97;3.65;;;;;;;7.11;53.92;102572.31;5022337;28;20315;-56
2022/03/22 03:21:21;;;;;;;6.15;3.20;;;;;;;7.05;54.70;102568.88;5015736;28;20065;-61
2022/03/22 03:23:47;;;;;;;7.50;2.97;;;;;;;7.06;54.53;102575.84;5013951;28;20030;-66
2022/03/22 03:26:12;;;;;;;10.98;3.22;;;;;;;7.05;53.98;102573.44;5027787;28;20044;-59
2022/03/22 03:28:38;;;;;;;5.53;3.13;;;;;;;7.02;54.99;102574.81;5023745;28;20037;-61
2022/03/22 03:31:03;;;;;;;7.60;3.05;;;;;;;6.99;54.75;102575.38;5027786;28;20503;-62
2022/03/22 03:33:28;;;;;;;8.43;3.08;;;;;;;7.00;54.61;102574.31;5015373;28;20041;-63
2022/03/22 03:35:54;;;;;;;11.98;3.72;;;;;;;6.96;54.88;102575.13;5031748;28;20028;-64
2022/03/22 03:38:19;;;;;;;4.97;2.78;;;;;;;6.94;55.49;102574.63;5043711;28;20060;-62
2022/03/22 03:43:29;;;;;;;6.68;3.25;;;;;;;6.83;55.26;102581.16;5029781;28;20091;-59
2022/03/22 03:48:38;;;;;;;7.80;3.30;;;;;;;6.74;55.48;102575.59;5028510;28;20049;-62
2022/03/22 03:51:04;;;;;;;9.38;3.75;;;;;;;6.70;55.38;102582.59;5012467;28;20033;-63
2022/03/22 03:53:29;;;;;;;7.75;3.10;;;;;;;6.66;55.73;102578.09;5031912;28;20033;-63
2022/03/22 03:55:54;;;;;;;6.85;3.47;;;;;;;6.62;56.06;102585.09;4997281;28;20543;-63
2022/03/22 03:58:20;;;;;;;8.63;3.38;;;;;;;6.55;56.91;102574.69;5029037;28;20033;-63
2022/03/22 04:00:45;;;;;;;6.95;2.97;;;;;;;6.57;56.53;102585.91;5015739;28;20400;-61
2022/03/22 04:03:10;;;;;;;7.28;3.10;;;;;;;6.57;56.69;102580.56;5011229;28;20037;-63
2022/03/22 04:05:36;;;;;;;6.93;2.97;;;;;;;6.59;56.12;102588.31;5015479;28;20033;-62
2022/03/22 04:08:01;;;;;;;5.80;2.35;;;;;;;6.59;56.17;102582.97;5018150;28;20099;-63
2022/03/22 04:10:27;;;;;;;5.97;2.75;;;;;;;6.56;56.17;102589.69;5027061;28;20289;-61
2022/03/22 04:12:52;;;;;;;6.60;3.13;;;;;;;6.56;56.64;102589.69;5012462;28;20484;-63
2022/03/22 04:15:18;;;;;;;7.65;3.08;;;;;;;6.53;56.52;102586.75;5011858;28;20072;-62
2022/03/22 04:17:43;;;;;;;7.03;3.22;;;;;;;6.53;57.20;102590.22;5009047;28;20092;-62
2022/03/22 04:20:10;;;;;;;6.38;3.17;;;;;;;6.51;56.55;102587.03;5025507;28;20108;-62
2022/03/22 04:22:36;;;;;;;5.53;2.75;;;;;;;6.50;56.11;102585.44;5028381;28;20403;-61
2022/03/22 04:25:02;;;;;;;7.25;3.45;;;;;;;6.47;56.34;102586.00;4995472;28;20044;-62
2022/03/22 04:32:56;;;;;;;8.68;3.63;;;;;;;6.44;56.67;102593.78;5025027;28;20040;-63
2022/03/22 04:35:27;;;;;;;6.53;3.60;;;;;;;6.43;56.93;102587.63;5025258;28;20045;-61
2022/03/22 04:37:53;;;;;;;8.88;3.13;;;;;;;6.41;56.52;102589.78;5025277;28;20033;-60
2022/03/22 04:40:19;;;;;;;8.77;3.10;;;;;;;6.41;56.62;102591.69;5019824;28;20041;-62
2022/03/22 04:42:47;;;;;;;7.88;2.88;;;;;;;6.40;56.26;102582.84;5024322;28;20064;-60
2022/03/22 04:45:12;;;;;;;6.50;2.92;;;;;;;6.36;56.36;102595.19;4995822;28;20664;-60
2022/03/22 04:47:39;;;;;;;6.75;3.80;;;;;;;6.28;56.30;102590.41;5026773;28;20041;-58
2022/03/22 04:50:08;;;;;;;7.20;3.15;;;;;;;6.28;55.91;102595.75;5024253;28;20458;-60
2022/03/22 04:58:03;;;;;;;6.45;3.00;;;;;;;6.28;56.27;102595.75;5025674;28;20450;-60
2022/03/22 05:00:29;;;;;;;8.52;3.33;;;;;;;6.25;56.40;102594.44;5022396;28;20145;-60
2022/03/22 05:02:56;;;;;;;8.40;2.80;;;;;;;6.22;56.59;102596.88;5020641;28;20495;-61
2022/03/22 05:08:07;;;;;;;8.50;3.10;;;;;;;6.24;56.33;102603.53;4966629;28;20509;-60
2022/03/22 05:10:34;;;;;;;5.57;2.97;;;;;;;6.20;57.08;102601.69;5010913;28;20040;-61
2022/03/22 05:12:59;;;;;;;5.65;2.60;;;;;;;6.24;57.06;102600.06;5026166;28;20120;-60
2022/03/22 05:15:25;;;;;;;4.50;3.15;;;;;;;6.20;56.10;102610.53;5022888;28;20132;-62
2022/03/22 05:17:51;;;;;;;5.72;2.95;;;;;;;6.18;56.54;102603.84;5025299;28;20121;-61
2022/03/22 05:20:17;;;;;;;11.23;3.22;;;;;;;6.18;57.07;102606.50;5009782;28;20034;-62
2022/03/22 05:22:43;;;;;;;9.25;3.78;;;;;;;6.19;56.92;102608.13;5007198;28;20068;-62
2022/03/22 05:25:10;;;;;;;6.85;2.92;;;;;;;6.19;56.53;102605.47;5024280;28;20034;-62
2022/03/22 05:27:37;;;;;;;8.00;3.90;;;;;;;6.18;56.45;102622.56;5011037;28;20056;-63
2022/03/22 05:30:06;;;;;;;10.25;4.03;;;;;;;6.17;56.67;102608.41;4992796;28;20037;-64
2022/03/22 05:32:32;;;;;;;3.83;2.55;;;;;;;6.15;57.63;102612.44;5020029;28;20038;-62
2022/03/22 05:34:58;;;;;;;8.35;3.05;;;;;;;6.15;57.21;102623.13;5001998;28;20099;-60
2022/03/22 05:37:24;;;;;;;8.20;3.05;;;;;;;6.19;56.67;102624.94;5029585;28;20056;-63
2022/03/22 05:39:49;;;;;;;10.10;2.90;;;;;;;6.20;57.42;102631.13;5019327;28;20484;-62
2022/03/22 05:42:14;;;;;;;7.97;3.83;;;;;;;6.20;56.21;102628.44;5028005;28;20041;-62
2022/03/22 05:44:41;;;;;;;5.30;3.17;;;;;;;6.22;57.17;102627.09;4996849;28;20044;-63
2022/03/22 05:47:07;;;;;;;11.57;3.08;;;;;;;6.21;56.97;102619.34;5031335;28;20048;-63
2022/03/22 05:49:33;;;;;;;6.30;3.55;;;;;;;6.24;57.08;102614.25;5025774;28;20033;-63
2022/03/22 05:51:59;;;;;;;10.45;3.22;;;;;;;6.25;56.71;102628.44;5012544;28;20082;-63
2022/03/22 05:54:25;;;;;;;7.15;3.38;;;;;;;6.25;57.04;102623.84;5025810;28;20037;-62
2022/03/22 05:56:51;;;;;;;6.68;2.55;;;;;;;6.28;57.44;102622.50;5010391;28;20044;-63
2022/03/22 05:59:17;;;;;;;7.22;2.85;;;;;;;6.31;57.24;102628.09;5012736;28;20044;-62
2022/03/22 06:01:44;;;;;;;6.68;3.05;;;;;;;6.37;57.03;102615.50;5019424;28;20365;-60
2022/03/22 06:04:11;;;;;;;10.43;3.70;;;;;;;6.38;57.27;102622.44;5024188;28;20105;-61
2022/03/22 06:06:36;;;;;;;4.53;2.78;;;;;;;6.41;56.84;102632.59;5023554;28;20044;-62
2022/03/22 06:09:02;;;;;;;9.25;3.65;;;;;;;6.51;57.08;102629.03;5044715;28;20045;-61
2022/03/22 06:11:29;;;;;;;8.07;3.35;;;;;;;6.53;57.35;102630.38;5013474;28;20032;-62
2022/03/22 06:13:54;;;;;;;6.93;3.33;;;;;;;6.61;56.85;102629.78;5012475;28;20037;-60
2022/03/22 06:16:20;;;;;;;7.15;3.53;;;;;;;6.64;56.73;102626.53;5015003;28;20044;-65
2022/03/22 06:18:45;;;;;;;10.25;3.85;;;;;;;6.68;57.02;102627.56;5020506;28;20065;-60
2022/03/22 06:21:11;;;;;;;11.43;3.63;;;;;;;6.77;57.24;102633.16;5027437;28;20556;-63
2022/03/22 06:23:36;;;;;;;5.25;3.15;;;;;;;6.85;56.45;102638.69;4994709;28;20029;-61
2022/03/22 06:26:02;;;;;;;9.13;3.30;;;;;;;6.92;56.19;102635.69;5021991;28;20029;-62
2022/03/22 06:28:28;;;;;;;8.20;3.80;;;;;;;6.98;55.58;102635.38;5009290;28;20404;-61
2022/03/22 06:30:53;;;;;;;9.43;3.28;;;;;;;7.03;56.07;102638.00;5014117;28;20037;-62
2022/03/22 06:33:22;;;;;;;7.50;3.30;;;;;;;7.08;54.91;102645.97;5027020;28;20048;-63
2022/03/22 06:35:48;;;;;;;8.15;3.95;;;;;;;7.15;54.73;102649.16;5019508;28;20455;-63
2022/03/22 06:38:13;;;;;;;6.80;3.40;;;;;;;7.22;54.78;102641.56;5029420;28;20105;-63
2022/03/22 06:40:39;;;;;;;9.38;4.13;;;;;;;7.30;55.45;102653.56;5017354;28;20396;-60
2022/03/22 06:43:07;;;;;;;14.85;4.13;;;;;;;7.31;55.19;102647.13;5009361;28;20029;-63
2022/03/22 06:45:33;;;;;;;7.88;3.67;;;;;;;7.37;55.26;102651.34;5011033;28;20053;-62
2022/03/22 06:48:39;;;;;;;12.23;4.38;;;;;;;7.43;54.69;102652.09;5012805;28;20457;-65
2022/03/22 06:51:04;;;;;;;9.80;3.75;;;;;;;7.46;54.71;102654.19;5010953;28;20037;-63
2022/03/22 06:53:30;;;;;;;9.10;4.15;;;;;;;7.52;54.50;102661.91;5032624;28;20040;-62
2022/03/22 06:55:55;;;;;;;13.45;4.70;;;;;;;7.59;54.39;102659.69;5019525;28;20025;-60
2022/03/22 06:58:22;;;;;;;11.13;3.92;;;;;;;7.68;54.31;102658.00;5022775;28;20480;-60
2022/03/22 07:00:48;;;;;;;7.63;3.72;;;;;;;7.77;54.29;102661.63;5026722;28;20037;-61
2022/03/22 07:03:15;;;;;;;10.45;4.32;;;;;;;7.86;53.49;102664.47;5027094;28;20092;-61
2022/03/22 07:05:46;;;;;;;7.63;4.03;;;;;;;7.96;54.24;102664.34;5034291;28;20033;-64
2022/03/22 07:08:12;;;;;;;;;;;;;;;8.02;54.70;102657.84;5022142;28;20040;-60
2022/03/22 07:10:38;;;;;;;7.50;3.40;;;;;;;8.11;54.26;102661.47;5013506;28;20007;-60
2022/03/22 07:13:08;;;;;;;9.93;3.83;;;;;;;8.19;54.25;102655.47;5024960;28;20175;-63
2022/03/22 07:15:38;;;;;;;8.82;4.40;;;;;;;8.23;53.38;102665.34;5035219;28;20438;-64
2022/03/22 07:18:05;;;;;;;11.75;3.97;;;;;;;8.34;53.11;102660.69;5024320;28;20030;-61
2022/03/22 07:20:31;;;;;;;9.10;3.60;;;;;;;8.40;52.20;102658.72;5031245;28;20515;-61
2022/03/22 07:22:57;;;;;;;8.20;3.25;;;;;;;8.44;51.68;102663.19;5015013;28;20542;-64
2022/03/22 07:25:23;;;;;;;14.48;4.75;;;;;;;8.49;51.67;102663.16;5000785;28;20037;-62
2022/03/22 07:27:49;;;;;;;10.93;4.30;;;;;;;8.58;51.28;102665.94;5003409;28;20028;-62
2022/03/22 07:30:15;;;;;;;9.10;4.00;;;;;;;8.68;50.73;102669.31;5035787;28;20360;-62
2022/03/22 07:32:43;;;;;;;7.35;3.78;;;;;;;8.82;50.05;102672.84;5003729;28;20030;-62
2022/03/22 07:35:10;;;;;;;9.15;4.45;;;;;;;8.93;49.86;102670.78;5020248;28;20126;-64
2022/03/22 07:37:36;;;;;;;11.48;4.20;;;;;;;9.10;49.33;102663.78;5037159;28;20041;-62
2022/03/22 07:40:05;;;;;;;10.27;4.30;;;;;;;9.31;48.81;102674.19;5031997;28;20400;-63
2022/03/22 07:42:32;;;;;;;10.68;3.88;;;;;;;9.43;48.58;102674.47;5026047;28;20391;-62
2022/03/22 07:45:01;;;;;;;10.18;4.50;;;;;;;9.68;47.69;102679.38;5007423;28;20045;-65
2022/03/22 07:47:28;;;;;;;11.80;4.45;;;;;;;9.75;47.90;102680.63;5028224;28;20320;-63
2022/03/22 07:55:22;;;;;;;10.23;4.65;;;;;;;10.21;47.08;102680.50;5026042;28;20515;-63
2022/03/22 07:58:21;;;;;;;11.32;4.55;;;;;;;10.35;46.94;102678.59;5005302;28;20042;-64
2022/03/22 08:00:47;;;;;;;8.75;4.32;;;;;;;10.50;46.71;102678.25;5000386;28;20055;-64
2022/03/22 08:03:15;;;;;;;8.45;4.60;;;;;;;10.66;46.70;102684.88;5020197;28;20433;-66
2022/03/22 08:05:44;;;;;;;10.85;4.32;;;;;;;10.84;46.00;102683.91;5026654;28;20112;-64
2022/03/22 08:08:09;;;;;;;11.32;5.05;;;;;;;11.00;46.35;102691.63;5034374;28;20037;-63
2022/03/22 08:10:35;;;;;;;9.27;4.55;;;;;;;11.15;45.82;102691.25;5125919;22;20453;-64
2022/03/22 08:13:02;;;;;;;14.18;5.32;;;;;;;11.19;45.38;102700.31;5035169;28;20040;-64
2022/03/22 08:15:29;;;;;;;11.68;4.65;;;;;;;11.24;45.52;102695.59;5034202;28;20087;-62
2022/03/22 08:17:55;;;;;;;12.45;4.90;;;;;;;11.34;46.74;102705.34;5025986;28;20063;-61
2022/03/22 08:20:20;;;;;;;12.45;4.88;;;;;;;11.44;44.96;102708.56;5038167;28;20423;-62
2022/03/22 08:22:53;;;;;;;14.27;4.75;;;;;;;11.41;44.78;102702.97;5036500;28;20055;-64
2022/03/22 08:25:27;;;;;;;10.93;4.93;;;;;;;11.57;45.23;102704.19;5023326;28;20357;-62
2022/03/22 08:27:53;;;;;;;12.43;5.22;;;;;;;11.68;45.90;102708.22;5043800;22;20045;-63
2022/03/22 08:30:22;;;;;;;10.57;5.05;;;;;;;11.65;45.42;102701.53;5002159;28;20045;-63
2022/03/22 08:32:49;;;;;;;11.02;5.50;;;;;;;11.72;44.32;102711.91;5018713;28;20037;-62
2022/03/22 08:35:15;;;;;;;17.75;5.45;;;;;;;11.78;45.19;102718.75;5023574;28;20099;-61
2022/03/22 08:37:40;;;;;;;14.55;5.05;;;;;;;11.82;45.34;102706.22;5010319;28;20037;-62
2022/03/22 08:40:06;;;;;;;10.77;4.80;;;;;;;12.00;44.41;102704.38;5017604;28;20112;-60
2022/03/22 08:42:32;;;;;;;11.55;4.82;;;;;;;12.07;43.65;102702.00;5003805;28;20029;-62
2022/03/22 08:44:59;;;;;;;13.15;4.47;;;;;;;12.12;44.08;102705.34;5014092;28;20095;-63
2022/03/22 08:47:26;;;;;;;13.00;5.28;;;;;;;12.33;43.80;102700.16;5020671;28;20034;-63
2022/03/22 08:49:52;;;;;;;13.75;4.65;;;;;;;12.45;43.01;102703.03;5016999;28;20507;-63
2022/03/22 08:52:17;;;;;;;12.35;5.13;;;;;;;12.50;43.29;102702.88;5024069;28;20047;-63
2022/03/22 08:54:43;;;;;;;14.00;5.07;;;;;;;12.72;43.45;102699.25;5016093;28;20029;-61
2022/03/22 08:57:08;;;;;;;12.82;4.72;;;;;;;12.86;42.15;102702.56;5022609;28;20469;-62
2022/03/22 08:59:34;;;;;;;12.38;4.05;;;;;;;12.94;42.85;102707.16;5022659;28;20408;-62
2022/03/22 09:02:01;;;;;;;11.50;4.75;;;;;;;13.20;42.06;102711.47;5026209;28;20029;-62
2022/03/22 09:07:11;;;;;;;10.20;4.40;;;;;;;13.52;42.36;102707.41;5021839;28;20332;-63
2022/03/22 09:09:37;;;;;;;10.63;5.20;;;;;;;13.62;42.07;102709.75;5021246;28;20072;-61
2022/03/22 09:12:02;;;;;;;11.20;4.55;;;;;;;13.81;40.50;102706.66;5020714;28;20439;-62
2022/03/22 09:14:29;;;;;;;10.80;4.28;;;;;;;13.85;40.20;102707.59;5018334;28;20037;-63
2022/03/22 09:16:54;;;;;;;10.73;5.07;;;;;;;13.94;40.10;102702.91;5014965;28;20123;-63
2022/03/22 09:19:20;;;;;;;11.60;4.55;;;;;;;14.04;39.45;102697.94;5020992;28;20472;-62
2022/03/22 09:21:45;;;;;;;10.02;4.30;;;;;;;14.20;40.25;102700.88;5023103;28;20087;-62
2022/03/22 09:24:11;;;;;;;14.43;4.88;;;;;;;14.41;39.59;102691.66;5020029;28;20040;-62
2022/03/22 09:26:36;;;;;;;11.25;4.70;;;;;;;14.53;40.29;102692.84;5023033;28;20049;-63
2022/03/22 09:29:02;;;;;;;10.95;4.95;;;;;;;14.66;40.11;102694.50;5015003;28;20077;-62
2022/03/22 09:31:28;;;;;;;11.63;4.82;;;;;;;14.91;39.95;102693.47;5006962;28;20077;-62
2022/03/22 09:33:54;;;;;;;10.10;4.55;;;;;;;15.09;41.05;102698.41;5026247;28;20580;-62
2022/03/22 09:36:19;;;;;;;11.18;4.57;;;;;;;15.34;39.57;102691.13;5014744;28;20374;-61
2022/03/22 09:38:46;;;;;;;12.30;4.70;;;;;;;15.77;39.73;102698.78;5020803;28;20039;-63
2022/03/22 09:41:16;;;;;;;16.05;5.10;;;;;;;16.00;37.58;102686.31;5017569;28;20029;-63
2022/03/22 09:43:48;;;;;;;9.38;4.30;;;;;;;16.05;37.96;102686.88;5019382;28;21663;-63
2022/03/22 09:46:18;;;;;;;9.68;4.38;;;;;;;16.09;38.62;102685.06;5016768;28;20040;-63
2022/03/22 09:48:48;;;;;;;10.38;4.28;;;;;;;16.26;38.20;102682.09;5017281;28;20037;-62
2022/03/22 09:54:00;;;;;;;9.73;3.95;;;;;;;16.45;36.48;102681.50;4998794;28;20026;-63
2022/03/22 09:56:30;;;;;;;9.35;3.72;;;;;;;16.44;36.56;102679.09;5018789;28;20084;-62
2022/03/22 09:58:58;;;;;;;8.55;3.90;;;;;;;16.51;36.38;102684.78;5025126;28;20025;-62
2022/03/22 10:01:24;;;;;;;10.32;4.05;;;;;;;16.67;34.80;102682.91;5020810;28;20450;-62
2022/03/22 10:04:01;;;;;;;9.63;3.92;;;;;;;16.64;34.72;102691.78;5023780;28;20022;-62
2022/03/22 10:06:28;;;;;;;10.20;4.25;;;;;;;16.84;34.63;102686.13;5019677;28;20450;-63
2022/03/22 10:08:55;;;;;;;6.80;3.72;;;;;;;16.81;34.92;102686.84;5021879;28;20053;-63
2022/03/22 10:11:21;;;;;;;8.85;4.18;;;;;;;16.99;34.26;102681.88;5023042;28;20033;-62
2022/03/22 10:14:08;;;;;;;9.55;3.95;;;;;;;16.81;34.65;102681.41;5017396;28;20508;-63
2022/03/22 10:16:48;;;;;;;7.75;3.97;;;;;;;16.88;34.74;102670.69;5020437;28;20041;-61
2022/03/22 10:19:22;;;;;;;9.10;3.85;;;;;;;17.03;35.09;102666.44;5001501;28;20037;-62
2022/03/22 10:21:48;;;;;;;6.78;3.50;;;;;;;17.15;34.70;102677.22;5020745;28;20036;-62
2022/03/22 10:24:17;;;;;;;9.95;3.90;;;;;;;17.25;34.60;102684.91;5019576;28;20044;-62
2022/03/22 10:26:47;;;;;;;8.52;3.65;;;;;;;17.27;34.51;102682.63;5020512;28;20040;-62
2022/03/22 10:29:14;;;;;;;9.65;4.30;;;;;;;17.26;34.77;102675.59;5017026;28;20455;-62
2022/03/22 10:31:41;;;;;;;9.18;4.13;;;;;;;17.30;35.86;102671.03;5019679;28;20045;-62
2022/03/22 10:34:09;;;;;;;10.07;4.30;;;;;;;17.45;36.01;102667.53;5019166;28;20029;-62
2022/03/22 10:36:36;;;;;;;8.98;3.85;;;;;;;17.54;36.02;102672.81;5017770;28;20088;-63
2022/03/22 10:39:05;;;;;;;8.02;3.85;;;;;;;17.64;36.00;102664.91;5021603;28;20037;-63
2022/03/22 10:41:32;;;;;;;8.98;4.35;;;;;;;17.74;34.98;102674.47;5017532;28;20031;-61
2022/03/22 10:44:15;;;;;;;10.73;4.45;;;;;;;17.67;35.45;102663.41;5023872;28;20034;-62
2022/03/22 10:46:45;;;;;;;11.55;4.20;;;;;;;17.60;35.18;102668.69;5019830;28;20034;-63
2022/03/22 10:49:13;;;;;;;12.02;4.72;;;;;;;17.71;35.36;102669.75;5020734;28;20144;-63
2022/03/22 10:51:43;;;;;;;9.10;4.07;;;;;;;17.69;34.75;102670.06;5015165;28;20096;-62
2022/03/22 10:54:12;;;;;;;10.75;4.15;;;;;;;17.90;34.69;102675.25;5020390;28;20029;-63
2022/03/22 10:56:50;;;;;;;10.52;4.50;;;;;;;17.86;35.32;102669.72;5021413;28;20061;-63
2022/03/22 10:59:18;;;;;;;8.95;4.22;;;;;;;17.88;34.86;102675.63;5016109;28;20343;-62
2022/03/22 11:01:45;;;;;;;9.75;4.35;;;;;;;17.95;34.06;102664.88;5018826;28;20128;-62
2022/03/22 11:04:15;;;;;;;11.55;4.35;;;;;;;17.85;35.12;102670.84;5016274;28;20112;-63
2022/03/22 11:06:41;;;;;;;11.95;4.75;;;;;;;17.97;35.77;102673.47;5003569;28;20041;-63
2022/03/22 11:09:08;;;;;;;8.23;3.92;;;;;;;17.98;35.44;102666.88;5014211;28;20030;-63
2022/03/22 11:11:35;;;;;;;11.18;4.68;;;;;;;18.12;34.84;102663.66;5014915;28;20030;-63
2022/03/22 11:14:01;;;;;;;9.55;4.35;;;;;;;18.19;35.08;102658.38;5009400;28;20141;-62
2022/03/22 11:16:29;;;;;;;17.50;5.15;;;;;;;18.17;35.06;102660.69;5015252;28;20403;-62
2022/03/22 11:18:59;;;;;;;15.05;4.20;;;;;;;18.19;35.31;102663.03;5016378;28;20403;-63
2022/03/22 11:21:26;;;;;;;9.43;4.32;;;;;;;18.17;36.01;102657.16;5020197;28;20045;-63
2022/03/22 11:24:03;;;;;;;8.85;4.00;;;;;;;18.17;37.00;102657.16;5014357;28;20313;-62
2022/03/22 11:26:28;;;;;;;11.32;4.85;;;;;;;18.34;36.14;102649.34;5022662;28;20384;-63
2022/03/22 11:28:54;;;;;;;8.20;4.10;;;;;;;18.46;35.59;102649.25;5021465;28;20038;-63
2022/03/22 11:31:21;;;;;;;12.50;4.90;;;;;;;18.50;35.64;102646.59;5021013;28;20033;-63
2022/03/22 11:36:38;;;;;;;10.45;3.85;;;;;;;18.68;35.02;102644.97;4998809;28;20413;-63
2022/03/22 11:39:04;;;;;;;13.07;4.50;;;;;;;18.91;35.00;102646.59;5012023;28;20034;-62
2022/03/22 11:44:27;;;;;;;9.50;4.38;;;;;;;19.08;33.39;102644.56;5025013;28;20033;-63
2022/03/22 11:47:07;;;;;;;12.43;4.65;;;;;;;19.10;33.28;102647.72;5021371;28;20037;-62
2022/03/22 11:50:07;;;;;;;10.25;4.38;;;;;;;19.13;34.01;102639.59;5020788;28;20037;-63
2022/03/22 11:52:41;;;;;;;8.35;3.67;;;;;;;19.21;32.89;102635.81;5000063;28;20121;-63
2022/03/22 11:55:10;;;;;;;6.75;3.47;;;;;;;19.21;32.15;102624.09;5020255;28;20070;-63
2022/03/22 11:57:45;;;;;;;7.93;3.90;;;;;;;19.31;32.31;102628.97;5019167;28;20451;-63
2022/03/22 12:00:14;;;;;;;9.00;4.03;;;;;;;19.40;33.14;102624.84;5023986;28;20666;-62
2022/03/22 12:02:43;;;;;;;11.00;4.40;;;;;;;19.51;32.48;102630.50;5001562;28;20400;-62
2022/03/22 12:05:08;;;;;;;9.98;4.22;;;;;;;19.66;32.20;102629.56;5014265;28;20033;-63
2022/03/22 12:07:36;;;;;;;10.23;4.22;;;;;;;19.74;31.88;102623.03;5003425;28;20064;-63
2022/03/22 12:10:11;;;;;;;9.20;3.50;;;;;;;19.87;31.11;102624.38;5025479;28;20100;-63
2022/03/22 12:12:38;;;;;;;5.78;3.40;;;;;;;19.79;31.21;102617.25;5024654;28;20052;-62